Harwinton, Connecticut
Current Conditions -  °F | °C
As of 6:50 PM on Sunday 25 Jan 2015 (Local Time) from KOXC Reporting Station
Few Clouds Few Clouds  
Wind Chill: 20°   Ceiling: Unl
Heat Index: 28°   Visibility: 10mi
Dew Point:   Wind: 8mph
Humidity: 37%   Direction: 350°N
Pressure: 29.87"   Gusts: NA
Location:  41.77°N, 73.07°W
Report Text: KOXC 252350Z 35007KT 10SM FEW250 M02/M15 A2987
Loading
Personal Weather Stations






























Interactive Weather Map New forecast layout! Learn more

10-Day Weather Forecast

Advertisements
Track Severe Weather on mobile